CheckWX is a tool to help pilots better visualize weather data.  It is not intended as a substitute for an official pre-flight weather briefing.

09:45:46 UTC

0VG METAR
Lee County Airport
Jonesville, Virginia, USA
Current

31 mins ago

K0VG 290915Z AUTO 25005G10KT 8SM -SN M01/M03 A3006 RMK AO2
Observed
Feb-29 @ 09:15 UTC
Wind
  • 250° at 5 KTS
  • Gusting to 10 KTS
Visibility
8 SM
Conditions
Light Snow
Temperature
-1°C / 30°F
Dewpoint
-3°C / 27°F
Humidity
86%
Altimeter
30.06" Hg
Pressure
1017.92 hPa
Previous

1 hour ago

K0VG 290835Z AUTO 28007KT 9SM -UP M00/M04 A3006 RMK AO2
Observed
Feb-29 @ 08:35 UTC
Wind
  • 280° at 7 KTS
Visibility
9 SM
Conditions
Unknown precipitation
Temperature
C / 32°F
Dewpoint
-4°C / 25°F
Humidity
75%
Altimeter
30.06" Hg
Pressure
1017.92 hPa
Previous

2 hours ago

K0VG 290815Z AUTO VRB04G11KT 10SM 00/M03 A3006 RMK AO2
Observed
Feb-29 @ 08:15 UTC
Wind
  • Variable at 4 KTS
  • Gusting to 11 KTS
Visibility
10 SM
Temperature
C / 32°F
Dewpoint
-3°C / 27°F
Humidity
80%
Altimeter
30.06" Hg
Pressure
1017.92 hPa